sensor_id;sensor_type;location;lat;lon;timestamp;pressure;altitude;pressure_sealevel;temperature;humidity
31183;BME280;17813;0.000;0.000;2023-04-24T00:01:28;98211.56;;;12.36;86.59
31183;BME280;17813;0.000;0.000;2023-04-24T00:03:57;98215.47;;;12.32;86.54
31183;BME280;17813;0.000;0.000;2023-04-24T00:06:29;98215.72;;;12.29;86.60
31183;BME280;17813;0.000;0.000;2023-04-24T00:09:04;98206.06;;;12.28;86.49
31183;BME280;17813;0.000;0.000;2023-04-24T00:11:32;98209.56;;;12.28;86.68
31183;BME280;17813;0.000;0.000;2023-04-24T00:13:59;98204.41;;;12.27;87.09
31183;BME280;17813;0.000;0.000;2023-04-24T00:16:26;98201.03;;;12.24;86.65
31183;BME280;17813;0.000;0.000;2023-04-24T00:18:53;98189.69;;;12.22;86.43
31183;BME280;17813;0.000;0.000;2023-04-24T00:21:30;98202.97;;;12.13;86.86
31183;BME280;17813;0.000;0.000;2023-04-24T00:23:59;98201.69;;;12.07;86.60
31183;BME280;17813;0.000;0.000;2023-04-24T00:26:27;98194.50;;;11.98;87.09
31183;BME280;17813;0.000;0.000;2023-04-24T00:28:55;98177.59;;;11.99;87.03
31183;BME280;17813;0.000;0.000;2023-04-24T00:31:22;98188.94;;;12.01;86.97
31183;BME280;17813;0.000;0.000;2023-04-24T00:33:49;98182.06;;;11.99;87.19
31183;BME280;17813;0.000;0.000;2023-04-24T00:36:20;98195.94;;;12.02;86.81
31183;BME280;17813;0.000;0.000;2023-04-24T00:38:48;98200.28;;;12.03;86.93
31183;BME280;17813;0.000;0.000;2023-04-24T00:41:15;98191.19;;;12.06;87.00
31183;BME280;17813;0.000;0.000;2023-04-24T00:43:42;98193.44;;;12.10;86.47
31183;BME280;17813;0.000;0.000;2023-04-24T00:46:10;98193.16;;;12.13;86.21
31183;BME280;17813;0.000;0.000;2023-04-24T00:48:40;98197.94;;;12.19;86.08
31183;BME280;17813;0.000;0.000;2023-04-24T00:51:07;98195.00;;;12.22;86.03
31183;BME280;17813;0.000;0.000;2023-04-24T00:53:34;98186.75;;;12.26;85.60
31183;BME280;17813;0.000;0.000;2023-04-24T00:56:03;98184.25;;;12.24;85.40
31183;BME280;17813;0.000;0.000;2023-04-24T00:58:34;98180.75;;;12.23;85.45
31183;BME280;17813;0.000;0.000;2023-04-24T01:01:01;98185.34;;;12.21;85.80
31183;BME280;17813;0.000;0.000;2023-04-24T01:03:30;98181.03;;;12.20;85.63
31183;BME280;17813;0.000;0.000;2023-04-24T01:05:58;98182.00;;;12.19;85.59
31183;BME280;17813;0.000;0.000;2023-04-24T01:08:26;98171.50;;;12.18;85.35
31183;BME280;17813;0.000;0.000;2023-04-24T01:10:57;98170.94;;;12.14;85.51
31183;BME280;17813;0.000;0.000;2023-04-24T01:13:25;98173.72;;;12.13;85.49
31183;BME280;17813;0.000;0.000;2023-04-24T01:15:52;98172.19;;;12.10;85.33
31183;BME280;17813;0.000;0.000;2023-04-24T01:18:19;98169.34;;;12.02;85.49
31183;BME280;17813;0.000;0.000;2023-04-24T01:20:49;98175.09;;;11.98;85.63
31183;BME280;17813;0.000;0.000;2023-04-24T01:23:18;98177.03;;;11.96;85.60
31183;BME280;17813;0.000;0.000;2023-04-24T01:25:44;98181.50;;;11.95;85.73
31183;BME280;17813;0.000;0.000;2023-04-24T01:28:12;98188.78;;;11.93;85.21
31183;BME280;17813;0.000;0.000;2023-04-24T01:30:40;98187.22;;;11.90;85.25
31183;BME280;17813;0.000;0.000;2023-04-24T01:33:08;98176.72;;;11.89;85.35
31183;BME280;17813;0.000;0.000;2023-04-24T01:35:53;98175.84;;;11.79;85.42
31183;BME280;17813;0.000;0.000;2023-04-24T01:38:21;98185.50;;;11.80;85.74
31183;BME280;17813;0.000;0.000;2023-04-24T01:40:49;98180.19;;;11.80;85.57
31183;BME280;17813;0.000;0.000;2023-04-24T01:43:17;98177.47;;;11.70;85.64
31183;BME280;17813;0.000;0.000;2023-04-24T01:45:46;98179.00;;;11.73;85.63
31183;BME280;17813;0.000;0.000;2023-04-24T01:48:13;98188.22;;;11.69;85.72
31183;BME280;17813;0.000;0.000;2023-04-24T01:50:48;98185.97;;;11.64;85.12
31183;BME280;17813;0.000;0.000;2023-04-24T01:53:16;98185.69;;;11.67;85.51
31183;BME280;17813;0.000;0.000;2023-04-24T01:55:43;98186.81;;;11.65;85.79
31183;BME280;17813;0.000;0.000;2023-04-24T01:58:13;98187.19;;;11.60;85.38
31183;BME280;17813;0.000;0.000;2023-04-24T02:00:40;98188.44;;;11.56;85.73
31183;BME280;17813;0.000;0.000;2023-04-24T02:03:08;98182.53;;;11.52;85.64
31183;BME280;17813;0.000;0.000;2023-04-24T02:05:34;98188.00;;;11.51;85.58
31183;BME280;17813;0.000;0.000;2023-04-24T02:08:01;98182.94;;;11.48;85.89
31183;BME280;17813;0.000;0.000;2023-04-24T02:10:28;98181.25;;;11.47;85.88
31183;BME280;17813;0.000;0.000;2023-04-24T02:12:56;98181.25;;;11.47;85.63
31183;BME280;17813;0.000;0.000;2023-04-24T02:15:23;98178.75;;;11.45;85.76
31183;BME280;17813;0.000;0.000;2023-04-24T02:17:50;98182.63;;;11.41;85.81
31183;BME280;17813;0.000;0.000;2023-04-24T02:20:17;98182.03;;;11.38;86.14
31183;BME280;17813;0.000;0.000;2023-04-24T02:22:44;98179.91;;;11.32;86.72
31183;BME280;17813;0.000;0.000;2023-04-24T02:25:14;98186.59;;;11.26;86.78
31183;BME280;17813;0.000;0.000;2023-04-24T02:27:42;98180.56;;;11.24;86.51
31183;BME280;17813;0.000;0.000;2023-04-24T02:30:09;98176.22;;;11.23;86.38
31183;BME280;17813;0.000;0.000;2023-04-24T02:32:37;98174.56;;;11.22;86.60
31183;BME280;17813;0.000;0.000;2023-04-24T02:35:05;98173.00;;;11.19;86.97
31183;BME280;17813;0.000;0.000;2023-04-24T02:37:32;98174.94;;;11.17;86.92
31183;BME280;17813;0.000;0.000;2023-04-24T02:40:00;98179.66;;;11.14;86.73
31183;BME280;17813;0.000;0.000;2023-04-24T02:42:27;98177.97;;;11.13;87.23
31183;BME280;17813;0.000;0.000;2023-04-24T02:44:53;98174.75;;;11.09;87.20
31183;BME280;17813;0.000;0.000;2023-04-24T02:47:20;98163.81;;;11.03;87.29
31183;BME280;17813;0.000;0.000;2023-04-24T02:49:51;98165.88;;;10.99;87.27
31183;BME280;17813;0.000;0.000;2023-04-24T02:52:17;98152.03;;;10.95;87.29
31183;BME280;17813;0.000;0.000;2023-04-24T02:54:44;98156.03;;;10.90;87.47
31183;BME280;17813;0.000;0.000;2023-04-24T02:57:12;98160.78;;;10.86;87.54
31183;BME280;17813;0.000;0.000;2023-04-24T02:59:39;98161.47;;;10.88;87.10
31183;BME280;17813;0.000;0.000;2023-04-24T03:02:07;98156.19;;;10.88;86.66
31183;BME280;17813;0.000;0.000;2023-04-24T03:04:34;98160.78;;;10.86;86.90
31183;BME280;17813;0.000;0.000;2023-04-24T03:07:01;98160.50;;;10.89;86.57
31183;BME280;17813;0.000;0.000;2023-04-24T03:09:30;98157.84;;;10.89;86.73
31183;BME280;17813;0.000;0.000;2023-04-24T03:11:57;98162.31;;;10.89;86.61
31183;BME280;17813;0.000;0.000;2023-04-24T03:14:25;98157.16;;;10.87;86.95
31183;BME280;17813;0.000;0.000;2023-04-24T03:16:51;98158.81;;;10.88;86.62
31183;BME280;17813;0.000;0.000;2023-04-24T03:19:19;98162.31;;;10.89;86.84
31183;BME280;17813;0.000;0.000;2023-04-24T03:21:47;98167.63;;;10.89;86.41
31183;BME280;17813;0.000;0.000;2023-04-24T03:24:14;98166.78;;;10.88;86.25
31183;BME280;17813;0.000;0.000;2023-04-24T03:26:41;98158.00;;;10.88;86.35
31183;BME280;17813;0.000;0.000;2023-04-24T03:29:08;98165.09;;;10.87;86.44
31183;BME280;17813;0.000;0.000;2023-04-24T03:31:35;98163.28;;;10.88;86.57
31183;BME280;17813;0.000;0.000;2023-04-24T03:34:04;98155.59;;;10.85;86.13
31183;BME280;17813;0.000;0.000;2023-04-24T03:36:31;98155.47;;;10.86;86.63
31183;BME280;17813;0.000;0.000;2023-04-24T03:38:58;98154.75;;;10.84;86.33
31183;BME280;17813;0.000;0.000;2023-04-24T03:41:26;98152.34;;;10.81;86.40
31183;BME280;17813;0.000;0.000;2023-04-24T03:43:53;98149.38;;;10.75;86.99
31183;BME280;17813;0.000;0.000;2023-04-24T03:46:20;98152.41;;;10.70;86.77
31183;BME280;17813;0.000;0.000;2023-04-24T03:48:47;98155.69;;;10.62;87.37
31183;BME280;17813;0.000;0.000;2023-04-24T03:51:14;98167.53;;;10.58;87.03
31183;BME280;17813;0.000;0.000;2023-04-24T03:53:41;98165.38;;;10.52;87.02
31183;BME280;17813;0.000;0.000;2023-04-24T03:56:08;98167.31;;;10.50;87.59
31183;BME280;17813;0.000;0.000;2023-04-24T03:58:34;98163.69;;;10.51;87.40
31183;BME280;17813;0.000;0.000;2023-04-24T04:01:01;98173.59;;;10.49;87.19
31183;BME280;17813;0.000;0.000;2023-04-24T04:03:29;98175.13;;;10.52;87.95
31183;BME280;17813;0.000;0.000;2023-04-24T04:05:57;98176.81;;;10.53;87.35
31183;BME280;17813;0.000;0.000;2023-04-24T04:08:24;98177.41;;;10.56;87.38
31183;BME280;17813;0.000;0.000;2023-04-24T04:10:51;98179.69;;;10.61;86.93
31183;BME280;17813;0.000;0.000;2023-04-24T04:13:18;98170.50;;;10.65;86.59
31183;BME280;17813;0.000;0.000;2023-04-24T04:15:45;98160.63;;;10.67;86.61
31183;BME280;17813;0.000;0.000;2023-04-24T04:18:12;98169.66;;;10.65;86.53
31183;BME280;17813;0.000;0.000;2023-04-24T04:20:39;98166.03;;;10.66;86.55
31183;BME280;17813;0.000;0.000;2023-04-24T04:23:06;98166.03;;;10.66;86.19
31183;BME280;17813;0.000;0.000;2023-04-24T04:25:33;98173.41;;;10.62;86.86
31183;BME280;17813;0.000;0.000;2023-04-24T04:28:00;98163.06;;;10.59;86.63
31183;BME280;17813;0.000;0.000;2023-04-24T04:30:28;98170.19;;;10.58;86.57
31183;BME280;17813;0.000;0.000;2023-04-24T04:33:00;98167.91;;;10.54;86.88
31183;BME280;17813;0.000;0.000;2023-04-24T04:35:28;98166.09;;;10.54;86.98
31183;BME280;17813;0.000;0.000;2023-04-24T04:37:55;98170.44;;;10.55;87.27
31183;BME280;17813;0.000;0.000;2023-04-24T04:40:26;98173.91;;;10.56;86.71
31183;BME280;17813;0.000;0.000;2023-04-24T04:42:55;98176.19;;;10.60;86.73
31183;BME280;17813;0.000;0.000;2023-04-24T04:45:26;98172.44;;;10.63;86.58
31183;BME280;17813;0.000;0.000;2023-04-24T04:47:57;98172.66;;;10.71;87.13
31183;BME280;17813;0.000;0.000;2023-04-24T04:50:24;98176.22;;;10.81;86.33
31183;BME280;17813;0.000;0.000;2023-04-24T04:52:52;98170.41;;;10.87;86.71
31183;BME280;17813;0.000;0.000;2023-04-24T04:55:19;98170.72;;;10.94;86.20
31183;BME280;17813;0.000;0.000;2023-04-24T04:57:46;98166.59;;;11.01;86.30
31183;BME280;17813;0.000;0.000;2023-04-24T05:00:16;98169.69;;;11.06;86.01
31183;BME280;17813;0.000;0.000;2023-04-24T05:02:46;98169.56;;;11.08;85.78
31183;BME280;17813;0.000;0.000;2023-04-24T05:05:19;98174.50;;;11.12;85.44
31183;BME280;17813;0.000;0.000;2023-04-24T05:07:49;98175.53;;;11.21;85.81
31183;BME280;17813;0.000;0.000;2023-04-24T05:10:16;98171.97;;;11.32;85.37
31183;BME280;17813;0.000;0.000;2023-04-24T05:12:44;98180.81;;;11.42;84.93
31183;BME280;17813;0.000;0.000;2023-04-24T05:15:12;98182.53;;;11.52;84.73
31183;BME280;17813;0.000;0.000;2023-04-24T05:17:42;98185.66;;;11.57;84.68
31183;BME280;17813;0.000;0.000;2023-04-24T05:20:09;98179.94;;;11.62;84.61
31183;BME280;17813;0.000;0.000;2023-04-24T05:22:50;98185.50;;;11.59;83.91
31183;BME280;17813;0.000;0.000;2023-04-24T05:25:18;98187.59;;;11.55;84.45
31183;BME280;17813;0.000;0.000;2023-04-24T05:27:48;98200.16;;;11.53;84.67
31183;BME280;17813;0.000;0.000;2023-04-24T05:30:17;98200.16;;;11.53;84.86
31183;BME280;17813;0.000;0.000;2023-04-24T05:32:44;98198.66;;;11.60;84.90
31183;BME280;17813;0.000;0.000;2023-04-24T05:35:11;98186.53;;;11.68;84.85
31183;BME280;17813;0.000;0.000;2023-04-24T05:37:39;98186.34;;;11.80;84.43
31183;BME280;17813;0.000;0.000;2023-04-24T05:40:06;98192.41;;;11.92;84.28
31183;BME280;17813;0.000;0.000;2023-04-24T05:42:33;98195.63;;;11.96;84.24
31183;BME280;17813;0.000;0.000;2023-04-24T05:45:00;98191.84;;;11.98;83.95
31183;BME280;17813;0.000;0.000;2023-04-24T05:47:28;98190.88;;;11.99;84.08
31183;BME280;17813;0.000;0.000;2023-04-24T05:49:56;98194.25;;;12.01;84.33
31183;BME280;17813;0.000;0.000;2023-04-24T05:52:25;98190.06;;;12.08;83.54
31183;BME280;17813;0.000;0.000;2023-04-24T05:54:52;98175.13;;;12.17;83.64
31183;BME280;17813;0.000;0.000;2023-04-24T05:57:20;98175.00;;;12.18;83.07
31183;BME280;17813;0.000;0.000;2023-04-24T05:59:47;98174.72;;;12.21;82.95
31183;BME280;17813;0.000;0.000;2023-04-24T06:02:15;98179.34;;;12.19;82.70
31183;BME280;17813;0.000;0.000;2023-04-24T06:04:42;98183.94;;;12.17;82.78
31183;BME280;17813;0.000;0.000;2023-04-24T06:07:11;98185.06;;;12.15;82.47
31183;BME280;17813;0.000;0.000;2023-04-24T06:09:38;98181.28;;;12.17;82.53
31183;BME280;17813;0.000;0.000;2023-04-24T06:12:05;98179.06;;;12.22;82.38
31183;BME280;17813;0.000;0.000;2023-04-24T06:14:35;98176.69;;;12.29;82.49
31183;BME280;17813;0.000;0.000;2023-04-24T06:17:03;98181.34;;;12.46;82.09
31183;BME280;17813;0.000;0.000;2023-04-24T06:19:30;98181.22;;;12.57;81.69
31183;BME280;17813;0.000;0.000;2023-04-24T06:21:58;98176.31;;;12.63;80.96
31183;BME280;17813;0.000;0.000;2023-04-24T06:24:28;98173.94;;;12.69;80.45
31183;BME280;17813;0.000;0.000;2023-04-24T06:26:57;98173.66;;;12.72;80.11
31183;BME280;17813;0.000;0.000;2023-04-24T06:29:25;98166.09;;;12.77;80.37
31183;BME280;17813;0.000;0.000;2023-04-24T06:31:52;98171.00;;;12.82;80.15
31183;BME280;17813;0.000;0.000;2023-04-24T06:34:19;98177.03;;;12.84;79.81
31183;BME280;17813;0.000;0.000;2023-04-24T06:36:47;98177.88;;;12.84;79.66
31183;BME280;17813;0.000;0.000;2023-04-24T06:39:15;98185.72;;;12.86;79.28
31183;BME280;17813;0.000;0.000;2023-04-24T06:41:44;98179.81;;;12.92;78.82
31183;BME280;17813;0.000;0.000;2023-04-24T06:44:12;98179.41;;;12.97;78.90
31183;BME280;17813;0.000;0.000;2023-04-24T06:46:42;98181.81;;;13.09;78.67
31183;BME280;17813;0.000;0.000;2023-04-24T06:49:12;98172.97;;;13.28;78.27
31183;BME280;17813;0.000;0.000;2023-04-24T06:51:43;98169.47;;;13.37;77.33
31183;BME280;17813;0.000;0.000;2023-04-24T06:54:12;98168.41;;;13.58;77.88
31183;BME280;17813;0.000;0.000;2023-04-24T06:56:40;98168.53;;;13.66;76.65
31183;BME280;17813;0.000;0.000;2023-04-24T06:59:08;98165.78;;;13.85;76.40
31183;BME280;17813;0.000;0.000;2023-04-24T07:01:36;98176.31;;;13.87;75.72
31183;BME280;17813;0.000;0.000;2023-04-24T07:04:03;98180.75;;;14.23;75.20
31183;BME280;17813;0.000;0.000;2023-04-24T07:06:30;98164.28;;;14.73;74.11
31183;BME280;17813;0.000;0.000;2023-04-24T07:08:57;98164.09;;;15.54;72.83
31183;BME280;17813;0.000;0.000;2023-04-24T07:11:24;98160.50;;;16.39;69.09
31183;BME280;17813;0.000;0.000;2023-04-24T07:13:51;98156.13;;;16.96;67.04
31183;BME280;17813;0.000;0.000;2023-04-24T07:16:18;98153.09;;;17.08;65.64
31183;BME280;17813;0.000;0.000;2023-04-24T07:18:48;98153.75;;;17.26;64.24
31183;BME280;17813;0.000;0.000;2023-04-24T07:21:15;98154.44;;;17.12;62.41
31183;BME280;17813;0.000;0.000;2023-04-24T07:23:46;98168.94;;;16.60;60.74
31183;BME280;17813;0.000;0.000;2023-04-24T07:26:14;98168.53;;;16.31;62.36
31183;BME280;17813;0.000;0.000;2023-04-24T07:28:57;98158.34;;;15.92;62.53
31183;BME280;17813;0.000;0.000;2023-04-24T07:31:24;98160.13;;;16.26;64.31
31183;BME280;17813;0.000;0.000;2023-04-24T07:33:52;98165.13;;;16.71;63.53
31183;BME280;17813;0.000;0.000;2023-04-24T07:36:18;98149.09;;;17.03;62.00
31183;BME280;17813;0.000;0.000;2023-04-24T07:38:46;98151.03;;;17.50;62.01
31183;BME280;17813;0.000;0.000;2023-04-24T07:41:14;98155.75;;;18.12;61.30
31183;BME280;17813;0.000;0.000;2023-04-24T07:43:42;98150.03;;;18.54;59.22
31183;BME280;17813;0.000;0.000;2023-04-24T07:46:09;98149.00;;;18.86;57.04
31183;BME280;17813;0.000;0.000;2023-04-24T07:48:36;98152.66;;;18.31;53.71
31183;BME280;17813;0.000;0.000;2023-04-24T07:51:04;98142.53;;;18.41;55.34
31183;BME280;17813;0.000;0.000;2023-04-24T07:53:31;98146.84;;;18.50;54.36
31183;BME280;17813;0.000;0.000;2023-04-24T07:55:58;98144.16;;;18.50;53.66
31183;BME280;17813;0.000;0.000;2023-04-24T07:58:44;98155.22;;;18.55;53.84
31183;BME280;17813;0.000;0.000;2023-04-24T08:01:11;98146.47;;;19.07;54.54
31183;BME280;17813;0.000;0.000;2023-04-24T08:03:38;98159.47;;;19.18;52.01
31183;BME280;17813;0.000;0.000;2023-04-24T08:06:15;98159.97;;;18.76;50.09
31183;BME280;17813;0.000;0.000;2023-04-24T08:08:43;98164.56;;;18.68;51.31
31183;BME280;17813;0.000;0.000;2023-04-24T08:11:10;98174.22;;;18.46;51.98
31183;BME280;17813;0.000;0.000;2023-04-24T08:13:38;98163.09;;;18.26;52.21
31183;BME280;17813;0.000;0.000;2023-04-24T08:16:06;98175.84;;;18.24;52.35
31183;BME280;17813;0.000;0.000;2023-04-24T08:18:33;98179.28;;;18.41;52.89
31183;BME280;17813;0.000;0.000;2023-04-24T08:21:03;98177.63;;;18.40;50.34
31183;BME280;17813;0.000;0.000;2023-04-24T08:23:29;98184.53;;;18.34;51.31
31183;BME280;17813;0.000;0.000;2023-04-24T08:25:56;98176.41;;;18.03;51.45
31183;BME280;17813;0.000;0.000;2023-04-24T08:28:24;98178.25;;;18.03;52.33
31183;BME280;17813;0.000;0.000;2023-04-24T08:30:52;98180.47;;;18.38;50.98
31183;BME280;17813;0.000;0.000;2023-04-24T08:33:22;98176.63;;;18.94;51.20
31183;BME280;17813;0.000;0.000;2023-04-24T08:35:53;98185.91;;;19.52;49.08
31183;BME280;17813;0.000;0.000;2023-04-24T08:38:20;98184.19;;;20.04;48.32
31183;BME280;17813;0.000;0.000;2023-04-24T08:40:48;98188.28;;;19.85;47.50
31183;BME280;17813;0.000;0.000;2023-04-24T08:43:17;98191.06;;;18.93;47.01
31183;BME280;17813;0.000;0.000;2023-04-24T08:45:44;98197.72;;;18.44;48.18
31183;BME280;17813;0.000;0.000;2023-04-24T08:48:12;98197.34;;;18.08;48.73
31183;BME280;17813;0.000;0.000;2023-04-24T08:50:40;98188.56;;;18.92;47.93
31183;BME280;17813;0.000;0.000;2023-04-24T08:53:10;98192.81;;;19.09;47.60
31183;BME280;17813;0.000;0.000;2023-04-24T08:55:37;98194.47;;;18.87;47.31
31183;BME280;17813;0.000;0.000;2023-04-24T08:58:05;98199.50;;;18.12;47.57
31183;BME280;17813;0.000;0.000;2023-04-24T09:00:33;98207.97;;;17.60;49.37
31183;BME280;17813;0.000;0.000;2023-04-24T09:03:01;98215.03;;;17.78;49.39
31183;BME280;17813;0.000;0.000;2023-04-24T09:05:30;98218.09;;;18.30;48.86
31183;BME280;17813;0.000;0.000;2023-04-24T09:07:57;98198.75;;;19.80;47.24
31183;BME280;17813;0.000;0.000;2023-04-24T09:10:26;98194.06;;;21.62;44.29
31183;BME280;17813;0.000;0.000;2023-04-24T09:13:04;98207.56;;;21.90;38.70
31183;BME280;17813;0.000;0.000;2023-04-24T09:15:32;98201.53;;;21.60;38.45
31183;BME280;17813;0.000;0.000;2023-04-24T09:17:59;98202.16;;;21.34;39.64
31183;BME280;17813;0.000;0.000;2023-04-24T09:20:27;98211.31;;;21.18;39.73
31183;BME280;17813;0.000;0.000;2023-04-24T09:22:58;98232.31;;;20.87;39.15
31183;BME280;17813;0.000;0.000;2023-04-24T09:25:43;98225.41;;;21.21;38.34
31183;BME280;17813;0.000;0.000;2023-04-24T09:28:10;98214.03;;;21.68;37.02
31183;BME280;17813;0.000;0.000;2023-04-24T09:30:36;98210.09;;;21.98;36.14
31183;BME280;17813;0.000;0.000;2023-04-24T09:33:16;98218.88;;;21.51;36.85
31183;BME280;17813;0.000;0.000;2023-04-24T09:35:50;98223.53;;;20.05;36.43
31183;BME280;17813;0.000;0.000;2023-04-24T09:38:18;98226.88;;;19.92;38.51
31183;BME280;17813;0.000;0.000;2023-04-24T09:40:47;98218.91;;;20.28;39.19
31183;BME280;17813;0.000;0.000;2023-04-24T09:43:19;98230.59;;;20.06;37.83
31183;BME280;17813;0.000;0.000;2023-04-24T09:45:46;98232.22;;;19.77;37.68
31183;BME280;17813;0.000;0.000;2023-04-24T09:48:36;98233.53;;;18.98;37.75
31183;BME280;17813;0.000;0.000;2023-04-24T09:51:05;98235.00;;;18.78;38.08
31183;BME280;17813;0.000;0.000;2023-04-24T09:53:45;98232.97;;;18.80;39.23
31183;BME280;17813;0.000;0.000;2023-04-24T09:56:12;98237.94;;;19.59;39.47
31183;BME280;17813;0.000;0.000;2023-04-24T09:58:39;98238.84;;;19.89;39.25
31183;BME280;17813;0.000;0.000;2023-04-24T10:01:07;98241.47;;;20.27;38.43
31183;BME280;17813;0.000;0.000;2023-04-24T10:03:35;98243.09;;;20.72;38.70
31183;BME280;17813;0.000;0.000;2023-04-24T10:06:04;98246.31;;;20.97;37.55
31183;BME280;17813;0.000;0.000;2023-04-24T10:08:36;98255.94;;;20.85;36.99
31183;BME280;17813;0.000;0.000;2023-04-24T10:11:03;98252.50;;;20.03;36.41
31183;BME280;17813;0.000;0.000;2023-04-24T10:13:31;98255.25;;;18.88;35.76
31183;BME280;17813;0.000;0.000;2023-04-24T10:15:59;98253.56;;;18.87;37.29
31183;BME280;17813;0.000;0.000;2023-04-24T10:18:27;98245.75;;;19.01;37.07
31183;BME280;17813;0.000;0.000;2023-04-24T10:20:55;98250.09;;;18.79;37.69
31183;BME280;17813;0.000;0.000;2023-04-24T10:23:23;98255.94;;;19.13;38.34
31183;BME280;17813;0.000;0.000;2023-04-24T10:25:53;98245.44;;;20.02;37.47
31183;BME280;17813;0.000;0.000;2023-04-24T10:28:21;98250.09;;;20.67;36.93
31183;BME280;17813;0.000;0.000;2023-04-24T10:30:48;98245.09;;;21.36;35.73
31183;BME280;17813;0.000;0.000;2023-04-24T10:33:18;98256.19;;;21.69;35.45
31183;BME280;17813;0.000;0.000;2023-04-24T10:35:47;98253.72;;;22.02;34.82
31183;BME280;17813;0.000;0.000;2023-04-24T10:38:22;98247.25;;;22.24;33.34
31183;BME280;17813;0.000;0.000;2023-04-24T10:40:51;98247.34;;;22.03;34.17
31183;BME280;17813;0.000;0.000;2023-04-24T10:43:23;98259.88;;;21.40;33.32
31183;BME280;17813;0.000;0.000;2023-04-24T10:46:01;98254.41;;;21.82;34.84
31183;BME280;17813;0.000;0.000;2023-04-24T10:48:29;98252.16;;;21.58;33.87
31183;BME280;17813;0.000;0.000;2023-04-24T10:50:56;98266.16;;;21.26;35.16
31183;BME280;17813;0.000;0.000;2023-04-24T10:53:28;98257.03;;;21.27;35.32
31183;BME280;17813;0.000;0.000;2023-04-24T10:56:07;98262.41;;;20.91;34.81
31183;BME280;17813;0.000;0.000;2023-04-24T10:58:44;98275.81;;;20.25;36.13
31183;BME280;17813;0.000;0.000;2023-04-24T11:01:44;98269.53;;;19.80;35.92
31183;BME280;17813;0.000;0.000;2023-04-24T11:04:30;98287.22;;;19.29;35.06
31183;BME280;17813;0.000;0.000;2023-04-24T11:06:58;98276.78;;;19.57;36.28
31183;BME280;17813;0.000;0.000;2023-04-24T11:09:28;98285.09;;;19.70;36.02
31183;BME280;17813;0.000;0.000;2023-04-24T11:12:05;98272.88;;;19.82;35.42
31183;BME280;17813;0.000;0.000;2023-04-24T11:15:01;98280.34;;;20.10;35.45
31183;BME280;17813;0.000;0.000;2023-04-24T11:17:36;98281.78;;;19.83;35.93
31183;BME280;17813;0.000;0.000;2023-04-24T11:20:11;98277.69;;;19.72;34.28
31183;BME280;17813;0.000;0.000;2023-04-24T11:22:40;98298.72;;;19.69;33.86
31183;BME280;17813;0.000;0.000;2023-04-24T11:25:09;98298.50;;;19.24;34.45
31183;BME280;17813;0.000;0.000;2023-04-24T11:27:41;98286.84;;;19.63;35.76
31183;BME280;17813;0.000;0.000;2023-04-24T11:30:10;98295.00;;;19.47;33.67
31183;BME280;17813;0.000;0.000;2023-04-24T11:32:39;98297.81;;;19.31;34.78
31183;BME280;17813;0.000;0.000;2023-04-24T11:35:17;98284.00;;;19.11;35.14
31183;BME280;17813;0.000;0.000;2023-04-24T11:37:50;98291.38;;;19.09;35.31
31183;BME280;17813;0.000;0.000;2023-04-24T11:40:20;98283.88;;;19.73;35.14
31183;BME280;17813;0.000;0.000;2023-04-24T11:42:49;98290.50;;;19.85;33.51
31183;BME280;17813;0.000;0.000;2023-04-24T11:45:25;98288.97;;;19.68;34.00
31183;BME280;17813;0.000;0.000;2023-04-24T11:47:54;98290.41;;;19.55;34.77
31183;BME280;17813;0.000;0.000;2023-04-24T11:50:24;98293.84;;;19.41;35.40
31183;BME280;17813;0.000;0.000;2023-04-24T11:52:56;98303.22;;;19.53;35.83
31183;BME280;17813;0.000;0.000;2023-04-24T11:57:57;98288.13;;;19.67;35.29
31183;BME280;17813;0.000;0.000;2023-04-24T12:00:30;98294.22;;;19.84;35.32
31183;BME280;17813;0.000;0.000;2023-04-24T12:03:08;98289.59;;;19.55;32.82
31183;BME280;17813;0.000;0.000;2023-04-24T12:05:39;98290.75;;;19.75;34.48
31183;BME280;17813;0.000;0.000;2023-04-24T12:08:07;98292.66;;;19.89;34.12
31183;BME280;17813;0.000;0.000;2023-04-24T12:10:34;98281.41;;;19.86;34.03
31183;BME280;17813;0.000;0.000;2023-04-24T12:13:01;98285.38;;;19.75;34.42
31183;BME280;17813;0.000;0.000;2023-04-24T12:15:29;98296.91;;;19.84;34.37
31183;BME280;17813;0.000;0.000;2023-04-24T12:17:56;98288.31;;;19.43;33.86
31183;BME280;17813;0.000;0.000;2023-04-24T12:20:31;98292.47;;;19.22;34.68
31183;BME280;17813;0.000;0.000;2023-04-24T12:23:01;98302.38;;;19.22;34.32
31183;BME280;17813;0.000;0.000;2023-04-24T12:25:32;98291.69;;;18.83;35.38
31183;BME280;17813;0.000;0.000;2023-04-24T12:30:35;98290.16;;;18.88;35.76
31183;BME280;17813;0.000;0.000;2023-04-24T12:33:04;98291.31;;;18.94;36.34
31183;BME280;17813;0.000;0.000;2023-04-24T12:35:32;98292.16;;;18.94;34.57
31183;BME280;17813;0.000;0.000;2023-04-24T12:38:10;98294.56;;;18.81;35.79
31183;BME280;17813;0.000;0.000;2023-04-24T12:40:40;98288.31;;;18.89;35.97
31183;BME280;17813;0.000;0.000;2023-04-24T12:43:21;98288.50;;;18.87;35.66
31183;BME280;17813;0.000;0.000;2023-04-24T12:45:48;98292.09;;;19.03;34.69
31183;BME280;17813;0.000;0.000;2023-04-24T12:48:15;98307.72;;;19.30;34.05
31183;BME280;17813;0.000;0.000;2023-04-24T12:50:46;98292.59;;;19.29;34.12
31183;BME280;17813;0.000;0.000;2023-04-24T12:53:14;98287.28;;;19.44;34.07
31183;BME280;17813;0.000;0.000;2023-04-24T12:55:41;98290.16;;;19.42;34.85
31183;BME280;17813;0.000;0.000;2023-04-24T12:58:08;98288.78;;;19.23;34.26
31183;BME280;17813;0.000;0.000;2023-04-24T13:00:36;98287.88;;;19.08;34.42
31183;BME280;17813;0.000;0.000;2023-04-24T13:03:04;98294.91;;;19.09;34.58
31183;BME280;17813;0.000;0.000;2023-04-24T13:05:30;98287.13;;;18.91;33.75
31183;BME280;17813;0.000;0.000;2023-04-24T13:07:58;98289.56;;;19.32;34.37
31183;BME280;17813;0.000;0.000;2023-04-24T13:10:25;98282.94;;;19.43;34.16
31183;BME280;17813;0.000;0.000;2023-04-24T13:12:52;98280.72;;;19.69;35.38
31183;BME280;17813;0.000;0.000;2023-04-24T13:15:20;98281.34;;;19.94;34.85
31183;BME280;17813;0.000;0.000;2023-04-24T13:17:47;98265.03;;;20.25;34.65
31183;BME280;17813;0.000;0.000;2023-04-24T13:20:14;98274.81;;;20.41;33.88
31183;BME280;17813;0.000;0.000;2023-04-24T13:22:42;98270.59;;;20.38;33.48
31183;BME280;17813;0.000;0.000;2023-04-24T13:25:08;98264.25;;;19.87;33.25